Time;durP1;ratioP1;P1;durP2;ratioP2;P2;SDS_P1;SDS_P2;PMS_P1;PMS_P2;Temp;Humidity;BMP_temperature;BMP_pressure;BME280_temperature;BME280_humidity;BME280_pressure;Samples;Min_cycle;Max_cycle;Signal;HPM_P1;HPM_P2
2022/05/16 00:01:17;;;;;;;;;;;;;;;;;;5035992;28;19981;-69
2022/05/16 00:03:43;;;;;;;;;;;;;;;;;;5053495;28;20003;-69
2022/05/16 00:06:08;;;;;;;;;;;;;;;;;;5053219;28;19927;-69
2022/05/16 00:08:35;;;;;;;;;;;;;;;;;;5035489;28;19982;-69
2022/05/16 00:11:01;;;;;;;;;;;;;;;;;;5053015;28;19920;-69
2022/05/16 00:13:27;;;;;;;;;;;;;;;;;;5052221;28;19986;-69
2022/05/16 00:15:55;;;;;;;;;;;;;;;;;;5052978;28;19922;-69
2022/05/16 00:18:21;;;;;;;;;;;;;;;;;;5052897;28;19921;-69
2022/05/16 00:20:47;;;;;;;;;;;;;;;;;;5052111;28;20015;-69
2022/05/16 00:23:13;;;;;;;;;;;;;;;;;;5051697;28;19928;-69
2022/05/16 00:25:39;;;;;;;;;;;;;;;;;;5039844;28;19943;-69
2022/05/16 00:28:05;;;;;;;;;;;;;;;;;;5054440;28;19920;-69
2022/05/16 00:30:31;;;;;;;;;;;;;;;;;;5054714;28;19920;-69
2022/05/16 00:32:57;;;;;;;;;;;;;;;;;;5054763;28;19939;-69
2022/05/16 00:35:23;;;;;;;;;;;;;;;;;;5072280;28;20278;-69
2022/05/16 00:37:49;;;;;;;;;;;;;;;;;;5073283;28;19916;-69
2022/05/16 00:40:15;;;;;;;;;;;;;;;;;;5055046;28;19917;-69
2022/05/16 00:42:41;;;;;;;;;;;;;;;;;;5054529;28;19927;-69
2022/05/16 00:45:07;;;;;;;;;;;;;;;;;;5073152;28;19920;-69
2022/05/16 00:47:33;;;;;;;;;;;;;;;;;;5073128;28;19939;-69
2022/05/16 00:49:59;;;;;;;;;;;;;;;;;;5054535;28;19917;-69
2022/05/16 00:52:25;;;;;;;;;;;;;;;;;;5073036;28;19975;-69
2022/05/16 00:54:51;;;;;;;;;;;;;;;;;;5073014;28;19921;-69
2022/05/16 00:57:17;;;;;;;;;;;;;;;;;;5073342;28;19943;-69
2022/05/16 00:59:43;;;;;;;;;;;;;;;;;;5072365;28;19923;-69
2022/05/16 01:04:55;;;;;;;;;;;;;;;;;;5072592;28;20254;-69
2022/05/16 01:07:22;;;;;;;;;;;;;;;;;;5055433;28;19981;-69
2022/05/16 01:09:48;;;;;;;;;;;;;;;;;;5073852;28;19920;-69
2022/05/16 01:12:15;;;;;;;;;;;;;;;;;;5073294;28;20290;-69
2022/05/16 01:14:41;;;;;;;;;;;;;;;;;;5073163;28;19920;-69
2022/05/16 01:17:07;;;;;;;;;;;;;;;;;;5073200;28;19939;-69
2022/05/16 01:19:32;;;;;;;;;;;;;;;;;;5072479;28;20011;-69
2022/05/16 01:21:58;;;;;;;;;;;;;;;;;;5055536;28;19935;-69
2022/05/16 01:24:25;;;;;;;;;;;;;;;;;;5077026;28;19924;-69
2022/05/16 01:26:52;;;;;;;;;;;;;;;;;;5061958;28;20007;-69
2022/05/16 01:29:19;;;;;;;;;;;;;;;;;;5056523;28;19925;-69
2022/05/16 01:31:45;;;;;;;;;;;;;;;;;;5056651;28;19917;-69
2022/05/16 01:34:11;;;;;;;;;;;;;;;;;;5038422;28;19921;-69
2022/05/16 01:36:38;;;;;;;;;;;;;;;;;;5038750;28;19917;-69
2022/05/16 01:39:04;;;;;;;;;;;;;;;;;;5056464;28;19917;-69
2022/05/16 01:41:31;;;;;;;;;;;;;;;;;;5056528;28;19925;-69
2022/05/16 01:43:57;;;;;;;;;;;;;;;;;;5038080;28;19921;-69
2022/05/16 01:46:24;;;;;;;;;;;;;;;;;;5056728;28;20034;-69
2022/05/16 01:48:50;;;;;;;;;;;;;;;;;;5056520;28;19920;-69
2022/05/16 01:51:16;;;;;;;;;;;;;;;;;;5054604;28;20264;-69
2022/05/16 01:53:42;;;;;;;;;;;;;;;;;;5056088;28;19995;-69
2022/05/16 01:56:08;;;;;;;;;;;;;;;;;;5055287;28;19944;-69
2022/05/16 01:58:34;;;;;;;;;;;;;;;;;;5055805;28;19921;-69
2022/05/16 02:01:00;;;;;;;;;;;;;;;;;;5056488;28;20158;-69
2022/05/16 02:03:27;;;;;;;;;;;;;;;;;;5054777;28;19920;-69
2022/05/16 02:05:53;;;;;;;;;;;;;;;;;;5055927;28;19970;-69
2022/05/16 02:08:19;;;;;;;;;;;;;;;;;;5038437;28;19921;-69
2022/05/16 02:10:45;;;;;;;;;;;;;;;;;;5056289;28;19916;-69
2022/05/16 02:13:11;;;;;;;;;;;;;;;;;;5055608;28;19991;-69
2022/05/16 02:15:37;;;;;;;;;;;;;;;;;;5037722;28;20398;-69
2022/05/16 02:18:03;;;;;;;;;;;;;;;;;;5055549;28;19956;-69
2022/05/16 02:20:29;;;;;;;;;;;;;;;;;;5036995;28;19927;-69
2022/05/16 02:25:40;;;;;;;;;;;;;;;;;;5060293;28;19920;-69
2022/05/16 02:28:06;;;;;;;;;;;;;;;;;;5075081;28;19916;-69
2022/05/16 02:30:32;;;;;;;;;;;;;;;;;;5057469;28;19920;-69
2022/05/16 02:32:58;;;;;;;;;;;;;;;;;;5075372;28;19942;-69
2022/05/16 02:35:24;;;;;;;;;;;;;;;;;;5075131;28;19916;-69
2022/05/16 02:37:50;;;;;;;;;;;;;;;;;;5076233;28;19965;-69
2022/05/16 02:40:16;;;;;;;;;;;;;;;;;;5057409;28;19917;-69
2022/05/16 02:42:42;;;;;;;;;;;;;;;;;;5056927;28;19923;-69
2022/05/16 02:45:08;;;;;;;;;;;;;;;;;;5075573;28;19924;-69
2022/05/16 02:47:35;;;;;;;;;;;;;;;;;;5075538;28;19981;-69
2022/05/16 02:50:01;;;;;;;;;;;;;;;;;;5074451;28;19916;-69
2022/05/16 02:52:27;;;;;;;;;;;;;;;;;;5057864;28;20370;-69
2022/05/16 02:54:52;;;;;;;;;;;;;;;;;;5075554;28;20061;-69
2022/05/16 02:57:18;;;;;;;;;;;;;;;;;;5074378;28;19927;-69
2022/05/16 02:59:44;;;;;;;;;;;;;;;;;;5074905;28;19939;-69
2022/05/16 03:02:10;;;;;;;;;;;;;;;;;;5057662;28;19955;-69
2022/05/16 03:04:36;;;;;;;;;;;;;;;;;;5074210;28;19985;-69
2022/05/16 03:07:02;;;;;;;;;;;;;;;;;;5074842;28;20023;-69
2022/05/16 03:09:28;;;;;;;;;;;;;;;;;;5075106;28;19938;-68
2022/05/16 03:11:54;;;;;;;;;;;;;;;;;;5056561;28;19920;-68
2022/05/16 03:14:20;;;;;;;;;;;;;;;;;;5075198;28;19978;-68
2022/05/16 03:16:46;;;;;;;;;;;;;;;;;;5057146;28;19983;-68
2022/05/16 03:19:12;;;;;;;;;;;;;;;;;;5039501;28;19916;-68
2022/05/16 03:21:38;;;;;;;;;;;;;;;;;;5074612;28;19916;-68
2022/05/16 03:24:04;;;;;;;;;;;;;;;;;;5053151;28;20003;-68
2022/05/16 03:26:30;;;;;;;;;;;;;;;;;;5042556;28;19917;-68
2022/05/16 03:28:55;;;;;;;;;;;;;;;;;;5034319;28;19921;-68
2022/05/16 03:31:21;;;;;;;;;;;;;;;;;;5034985;28;19923;-68
2022/05/16 03:33:47;;;;;;;;;;;;;;;;;;5034099;28;19921;-68
2022/05/16 03:36:13;;;;;;;;;;;;;;;;;;5034795;28;19917;-68
2022/05/16 03:41:24;;;;;;;;;;;;;;;;;;5034599;28;20355;-68
2022/05/16 03:43:50;;;;;;;;;;;;;;;;;;5032498;28;19917;-68
2022/05/16 03:46:16;;;;;;;;;;;;;;;;;;5033947;28;20651;-68
2022/05/16 03:48:42;;;;;;;;;;;;;;;;;;5033723;28;20009;-69
2022/05/16 03:51:08;;;;;;;;;;;;;;;;;;5034839;28;19921;-69
2022/05/16 03:53:46;;;;;;;;;;;;;;;;;;5033333;28;19917;-69
2022/05/16 03:56:11;;;;;;;;;;;;;;;;;;5034074;28;19944;-68
2022/05/16 03:58:37;;;;;;;;;;;;;;;;;;5033060;28;20264;-68
2022/05/16 04:01:03;;;;;;;;;;;;;;;;;;5034297;28;19917;-68
2022/05/16 04:03:29;;;;;;;;;;;;;;;;;;5034179;28;20007;-68
2022/05/16 04:05:55;;;;;;;;;;;;;;;;;;5034646;28;19921;-68
2022/05/16 04:08:21;;;;;;;;;;;;;;;;;;5034731;28;19971;-68
2022/05/16 04:10:49;;;;;;;;;;;;;;;;;;5034432;28;20015;-68
2022/05/16 04:13:15;;;;;;;;;;;;;;;;;;5034271;28;19921;-68
2022/05/16 04:15:41;;;;;;;;;;;;;;;;;;5034794;28;19966;-68
2022/05/16 04:18:07;;;;;;;;;;;;;;;;;;5033606;28;19917;-68
2022/05/16 04:20:33;;;;;;;;;;;;;;;;;;5034419;28;19939;-68
2022/05/16 04:22:59;;;;;;;;;;;;;;;;;;5031129;28;19924;-68
2022/05/16 04:25:25;;;;;;;;;;;;;;;;;;5036774;28;19924;-68
2022/05/16 04:27:50;;;;;;;;;;;;;;;;;;5036268;28;20019;-68
2022/05/16 04:30:16;;;;;;;;;;;;;;;;;;5054216;28;19978;-68
2022/05/16 04:32:42;;;;;;;;;;;;;;;;;;5053498;28;19921;-68
2022/05/16 04:35:08;;;;;;;;;;;;;;;;;;5054896;28;20018;-68
2022/05/16 04:37:34;;;;;;;;;;;;;;;;;;5055096;28;19966;-68
2022/05/16 04:40:00;;;;;;;;;;;;;;;;;;5054294;28;19930;-68
2022/05/16 04:42:42;;;;;;;;;;;;;;;;;;5037270;28;19916;-68
2022/05/16 04:45:09;;;;;;;;;;;;;;;;;;5055216;28;19986;-68
2022/05/16 04:47:35;;;;;;;;;;;;;;;;;;5056347;28;19917;-68
2022/05/16 04:50:01;;;;;;;;;;;;;;;;;;5056774;28;19973;-68
2022/05/16 04:52:28;;;;;;;;;;;;;;;;;;5057104;28;19940;-68
2022/05/16 04:54:54;;;;;;;;;;;;;;;;;;5039248;28;19975;-68
2022/05/16 04:57:20;;;;;;;;;;;;;;;;;;5060314;28;19960;-68
2022/05/16 04:59:49;;;;;;;;;;;;;;;;;;5060544;28;19923;-68
2022/05/16 05:02:15;;;;;;;;;;;;;;;;;;5060744;28;19923;-68
2022/05/16 05:04:41;;;;;;;;;;;;;;;;;;5060345;28;20275;-68
2022/05/16 05:07:07;;;;;;;;;;;;;;;;;;5042239;28;19923;-68
2022/05/16 05:14:32;;;;;;;;;;;;;;;;;;5060422;28;20061;-68
2022/05/16 05:15:04;;;;;;;;;;;;;;;;;;5060880;28;20306;-68
2022/05/16 05:17:30;;;;;;;;;;;;;;;;;;5060808;28;19952;-68
2022/05/16 05:19:56;;;;;;;;;;;;;;;;;;5042769;28;19923;-69
2022/05/16 05:22:22;;;;;;;;;;;;;;;;;;5041882;28;19924;-69
2022/05/16 05:24:48;;;;;;;;;;;;;;;;;;5080218;28;19921;-69
2022/05/16 05:27:14;;;;;;;;;;;;;;;;;;5062820;28;20290;-69
2022/05/16 05:29:39;;;;;;;;;;;;;;;;;;5058906;28;19916;-69
2022/05/16 05:32:05;;;;;;;;;;;;;;;;;;5056676;28;20386;-69
2022/05/16 05:34:34;;;;;;;;;;;;;;;;;;5057170;28;19917;-69
2022/05/16 05:37:00;;;;;;;;;;;;;;;;;;5038057;28;20191;-69
2022/05/16 05:39:26;;;;;;;;;;;;;;;;;;5061542;28;19917;-68
2022/05/16 05:41:52;;;;;;;;;;;;;;;;;;5042932;28;19962;-69
2022/05/16 05:44:18;;;;;;;;;;;;;;;;;;5059689;28;20381;-68
2022/05/16 05:46:44;;;;;;;;;;;;;;;;;;5058500;28;19920;-68
2022/05/16 05:49:11;;;;;;;;;;;;;;;;;;5047121;28;19917;-69
2022/05/16 05:51:37;;;;;;;;;;;;;;;;;;5059690;28;20054;-69
2022/05/16 05:54:03;;;;;;;;;;;;;;;;;;5038727;28;20119;-69
2022/05/16 05:56:29;;;;;;;;;;;;;;;;;;5073692;28;19928;-69
2022/05/16 05:58:55;;;;;;;;;;;;;;;;;;5077409;28;19943;-69
2022/05/16 06:01:21;;;;;;;;;;;;;;;;;;5062461;28;19920;-69
2022/05/16 06:03:47;;;;;;;;;;;;;;;;;;5061041;28;19981;-69
2022/05/16 06:06:14;;;;;;;;;;;;;;;;;;5058868;28;19966;-69
2022/05/16 06:08:39;;;;;;;;;;;;;;;;;;5058647;28;19921;-69
2022/05/16 06:11:05;;;;;;;;;;;;;;;;;;5063251;28;19923;-69
2022/05/16 06:13:31;;;;;;;;;;;;;;;;;;5077725;28;19916;-69
2022/05/16 06:15:58;;;;;;;;;;;;;;;;;;5077538;28;19926;-68
2022/05/16 06:18:24;;;;;;;;;;;;;;;;;;5078132;28;19916;-69
2022/05/16 06:20:50;;;;;;;;;;;;;;;;;;5077724;28;19924;-69
2022/05/16 06:23:16;;;;;;;;;;;;;;;;;;5071239;28;19947;-69
2022/05/16 06:25:42;;;;;;;;;;;;;;;;;;5063913;28;19970;-69
2022/05/16 06:28:08;;;;;;;;;;;;;;;;;;5054683;28;19920;-65
2022/05/16 06:30:34;;;;;;;;;;;;;;;;;;5072923;28;20006;-68
2022/05/16 06:33:00;;;;;;;;;;;;;;;;;;5072739;28;20003;-68
2022/05/16 06:35:26;;;;;;;;;;;;;;;;;;5056003;28;19916;-66
2022/05/16 06:37:52;;;;;;;;;;;;;;;;;;5028347;28;20377;-68
2022/05/16 06:40:18;;;;;;;;;;;;;;;;;;5057169;28;19916;-68
2022/05/16 06:42:45;;;;;;;;;;;;;;;;;;5074743;28;19922;-68
2022/05/16 06:45:10;;;;;;;;;;;;;;;;;;5052980;28;20179;-69
2022/05/16 06:47:36;;;;;;;;;;;;;;;;;;5060012;28;19994;-69
2022/05/16 06:50:02;;;;;;;;;;;;;;;;;;5068437;28;19917;-67
2022/05/16 06:52:28;;;;;;;;;;;;;;;;;;5060381;28;19924;-67
2022/05/16 06:54:54;;;;;;;;;;;;;;;;;;5052827;28;20058;-68
2022/05/16 06:57:20;;;;;;;;;;;;;;;;;;5069264;28;20647;-67
2022/05/16 06:59:46;;;;;;;;;;;;;;;;;;5044127;28;20256;-66
2022/05/16 07:02:12;;;;;;;;;;;;;;;;;;5073484;28;19939;-66
2022/05/16 07:04:39;;;;;;;;;;;;;;;;;;5078533;28;19925;-68
2022/05/16 07:07:05;;;;;;;;;;;;;;;;;;5060166;28;19916;-66
2022/05/16 07:09:31;;;;;;;;;;;;;;;;;;5071941;28;20313;-66
2022/05/16 07:11:57;;;;;;;;;;;;;;;;;;5055767;28;19924;-67
2022/05/16 07:14:23;;;;;;;;;;;;;;;;;;5053085;28;20111;-66
2022/05/16 07:16:51;;;;;;;;;;;;;;;;;;5067581;28;19921;-67
2022/05/16 07:19:17;;;;;;;;;;;;;;;;;;5075966;28;19920;-66
2022/05/16 07:21:43;;;;;;;;;;;;;;;;;;5068377;28;19971;-65
2022/05/16 07:24:09;;;;;;;;;;;;;;;;;;5044773;28;19929;-65
2022/05/16 07:29:19;;;;;;;;;;;;;;;;;;5027724;28;20326;-67
2022/05/16 07:31:46;;;;;;;;;;;;;;;;;;5037193;28;19916;-68
2022/05/16 07:34:12;;;;;;;;;;;;;;;;;;5048201;28;19924;-66
2022/05/16 07:36:38;;;;;;;;;;;;;;;;;;5046992;28;19923;-66
2022/05/16 07:39:04;;;;;;;;;;;;;;;;;;5045999;28;19921;-66
2022/05/16 07:41:38;;;;;;;;;;;;;;;;;;5069665;28;19927;-65
2022/05/16 07:44:04;;;;;;;;;;;;;;;;;;5049428;28;19977;-65
2022/05/16 07:46:30;;;;;;;;;;;;;;;;;;5051326;28;19928;-64
2022/05/16 07:48:56;;;;;;;;;;;;;;;;;;5050637;28;19955;-65
2022/05/16 07:51:21;;;;;;;;;;;;;;;;;;5047868;28;19921;-66
2022/05/16 07:53:48;;;;;;;;;;;;;;;;;;5049736;28;19925;-67
2022/05/16 07:56:14;;;;;;;;;;;;;;;;;;5050056;28;19928;-67
2022/05/16 07:58:40;;;;;;;;;;;;;;;;;;5046863;28;20375;-67
2022/05/16 08:01:06;;;;;;;;;;;;;;;;;;5046609;28;19921;-67
2022/05/16 08:03:32;;;;;;;;;;;;;;;;;;5064471;28;19925;-68
2022/05/16 08:05:58;;;;;;;;;;;;;;;;;;5047357;28;19920;-65
2022/05/16 08:11:09;;;;;;;;;;;;;;;;;;5046804;28;20251;-66
2022/05/16 08:13:35;;;;;;;;;;;;;;;;;;5048216;28;19938;-66
2022/05/16 08:16:01;;;;;;;;;;;;;;;;;;5049079;28;20466;-66
2022/05/16 08:18:27;;;;;;;;;;;;;;;;;;5048746;28;19921;-66
2022/05/16 08:20:54;;;;;;;;;;;;;;;;;;5047688;28;19921;-66
2022/05/16 08:23:21;;;;;;;;;;;;;;;;;;5046289;28;19932;-66
2022/05/16 08:25:47;;;;;;;;;;;;;;;;;;5048319;28;20264;-69
2022/05/16 08:28:13;;;;;;;;;;;;;;;;;;5047570;28;19928;-69
2022/05/16 08:30:39;;;;;;;;;;;;;;;;;;5046204;28;20546;-69
2022/05/16 08:33:05;;;;;;;;;;;;;;;;;;5046489;28;19921;-69
2022/05/16 08:35:31;;;;;;;;;;;;;;;;;;5050385;28;19996;-65
2022/05/16 08:40:43;;;;;;;;;;;;;;;;;;5045641;28;20586;-66
2022/05/16 08:43:11;;;;;;;;;;;;;;;;;;5046822;28;20436;-68
2022/05/16 08:45:38;;;;;;;;;;;;;;;;;;5046993;28;19925;-67
2022/05/16 08:48:04;;;;;;;;;;;;;;;;;;5048641;28;19952;-65
2022/05/16 08:50:30;;;;;;;;;;;;;;;;;;5048269;28;19979;-65
2022/05/16 08:52:56;;;;;;;;;;;;;;;;;;5032860;28;19921;-67
2022/05/16 08:55:22;;;;;;;;;;;;;;;;;;5034363;28;19921;-67
2022/05/16 08:57:48;;;;;;;;;;;;;;;;;;5035006;28;19925;-67
2022/05/16 09:00:14;;;;;;;;;;;;;;;;;;5032997;28;19948;-67
2022/05/16 09:02:40;;;;;;;;;;;;;;;;;;5033068;28;19927;-67
2022/05/16 09:05:06;;;;;;;;;;;;;;;;;;5032039;28;20371;-67
2022/05/16 09:07:32;;;;;;;;;;;;;;;;;;5033114;28;19933;-69
2022/05/16 09:09:58;;;;;;;;;;;;;;;;;;5031563;28;20330;-68
2022/05/16 09:12:24;;;;;;;;;;;;;;;;;;5033315;28;19921;-67
2022/05/16 09:14:51;;;;;;;;;;;;;;;;;;5033214;28;19925;-67
2022/05/16 09:17:17;;;;;;;;;;;;;;;;;;5033614;28;19970;-66
2022/05/16 09:19:43;;;;;;;;;;;;;;;;;;5033079;28;20017;-68
2022/05/16 09:22:10;;;;;;;;;;;;;;;;;;5033435;28;19987;-68
2022/05/16 09:24:36;;;;;;;;;;;;;;;;;;5033712;28;19964;-66
2022/05/16 09:27:02;;;;;;;;;;;;;;;;;;5033338;28;20005;-68
2022/05/16 09:29:31;;;;;;;;;;;;;;;;;;5031818;28;19924;-68
2022/05/16 09:31:56;;;;;;;;;;;;;;;;;;5033170;28;20372;-67
2022/05/16 09:34:22;;;;;;;;;;;;;;;;;;5034643;28;19932;-66
2022/05/16 09:36:49;;;;;;;;;;;;;;;;;;5035184;28;19932;-66
2022/05/16 09:39:15;;;;;;;;;;;;;;;;;;5034873;28;19925;-67
2022/05/16 09:41:42;;;;;;;;;;;;;;;;;;5032021;28;19998;-67
2022/05/16 09:44:08;;;;;;;;;;;;;;;;;;5031006;28;19921;-69
2022/05/16 09:46:34;;;;;;;;;;;;;;;;;;5032559;28;20032;-66
2022/05/16 09:49:00;;;;;;;;;;;;;;;;;;5031503;28;19932;-67
2022/05/16 09:51:26;;;;;;;;;;;;;;;;;;5028992;28;20011;-66
2022/05/16 09:53:52;;;;;;;;;;;;;;;;;;5029290;28;19964;-66
2022/05/16 09:56:18;;;;;;;;;;;;;;;;;;5031798;28;19928;-66
2022/05/16 09:58:44;;;;;;;;;;;;;;;;;;5047341;28;19929;-66
2022/05/16 10:01:11;;;;;;;;;;;;;;;;;;5032057;28;20012;-66
2022/05/16 10:03:37;;;;;;;;;;;;;;;;;;5030771;28;20276;-68
2022/05/16 10:06:03;;;;;;;;;;;;;;;;;;5028716;28;19925;-67
2022/05/16 10:08:30;;;;;;;;;;;;;;;;;;5028837;28;19936;-66
2022/05/16 10:10:56;;;;;;;;;;;;;;;;;;5027188;28;20555;-67
2022/05/16 10:13:22;;;;;;;;;;;;;;;;;;5026507;28;19975;-67
2022/05/16 10:15:48;;;;;;;;;;;;;;;;;;5028499;28;20015;-68
2022/05/16 10:18:14;;;;;;;;;;;;;;;;;;5030571;28;20016;-66
2022/05/16 10:20:40;;;;;;;;;;;;;;;;;;5033081;28;19928;-66
2022/05/16 10:23:06;;;;;;;;;;;;;;;;;;5029479;28;19980;-66
2022/05/16 10:25:32;;;;;;;;;;;;;;;;;;5031593;28;19921;-67
2022/05/16 10:27:58;;;;;;;;;;;;;;;;;;5032111;28;19986;-68
2022/05/16 10:30:24;;;;;;;;;;;;;;;;;;5030830;28;19921;-70
2022/05/16 10:35:34;;;;;;;;;;;;;;;;;;5031289;28;20346;-71
2022/05/16 10:38:01;;;;;;;;;;;;;;;;;;5030032;28;19925;-71
2022/05/16 10:40:28;;;;;;;;;;;;;;;;;;5031425;28;19930;-71
2022/05/16 10:42:54;;;;;;;;;;;;;;;;;;5030790;28;20425;-71
2022/05/16 10:45:19;;;;;;;;;;;;;;;;;;5030148;28;20062;-71
2022/05/16 10:47:45;;;;;;;;;;;;;;;;;;5031886;28;19995;-71
2022/05/16 10:50:11;;;;;;;;;;;;;;;;;;5029629;28;19921;-71
2022/05/16 10:52:37;;;;;;;;;;;;;;;;;;5046629;28;19925;-71
2022/05/16 10:55:03;;;;;;;;;;;;;;;;;;5030068;28;19921;-71
2022/05/16 10:57:31;;;;;;;;;;;;;;;;;;5046173;28;20032;-71
2022/05/16 10:59:57;;;;;;;;;;;;;;;;;;5031677;28;19925;-71
2022/05/16 11:02:23;;;;;;;;;;;;;;;;;;5029392;28;19921;-70
2022/05/16 11:04:49;;;;;;;;;;;;;;;;;;5030255;28;19972;-69
2022/05/16 11:07:15;;;;;;;;;;;;;;;;;;5032065;28;19925;-68
2022/05/16 11:09:41;;;;;;;;;;;;;;;;;;5030747;28;19982;-68
2022/05/16 11:12:08;;;;;;;;;;;;;;;;;;5031313;28;19921;-68
2022/05/16 11:14:34;;;;;;;;;;;;;;;;;;5034682;28;19921;-67
2022/05/16 11:17:00;;;;;;;;;;;;;;;;;;5032772;28;19928;-67
2022/05/16 11:19:25;;;;;;;;;;;;;;;;;;5034421;28;19929;-65
2022/05/16 11:21:51;;;;;;;;;;;;;;;;;;5033712;28;20016;-65
2022/05/16 11:24:19;;;;;;;;;;;;;;;;;;5029099;28;19925;-67
2022/05/16 11:26:45;;;;;;;;;;;;;;;;;;5028761;28;19925;-66
2022/05/16 11:29:18;;;;;;;;;;;;;;;;;;5034158;28;19978;-67
2022/05/16 11:31:44;;;;;;;;;;;;;;;;;;5033824;28;19921;-67
2022/05/16 11:34:10;;;;;;;;;;;;;;;;;;5034507;28;19932;-67
2022/05/16 11:36:37;;;;;;;;;;;;;;;;;;5032821;28;20019;-67
2022/05/16 11:39:03;;;;;;;;;;;;;;;;;;5032367;28;19921;-66
2022/05/16 11:41:29;;;;;;;;;;;;;;;;;;5024243;28;19956;-68
2022/05/16 11:43:55;;;;;;;;;;;;;;;;;;5022805;28;20027;-68
2022/05/16 11:46:22;;;;;;;;;;;;;;;;;;5027815;28;19944;-68
2022/05/16 11:48:49;;;;;;;;;;;;;;;;;;5025416;28;20004;-68
2022/05/16 11:51:15;;;;;;;;;;;;;;;;;;5030962;28;19972;-67
2022/05/16 11:53:42;;;;;;;;;;;;;;;;;;5030226;28;19968;-68
2022/05/16 12:01:37;;;;;;;;;;;;;;;;;;5033247;28;20381;-67
2022/05/16 12:04:03;;;;;;;;;;;;;;;;;;5033557;28;19964;-67
2022/05/16 12:06:29;;;;;;;;;;;;;;;;;;5033284;28;19947;-67
2022/05/16 12:08:55;;;;;;;;;;;;;;;;;;5031350;28;19952;-68
2022/05/16 12:11:21;;;;;;;;;;;;;;;;;;5044767;28;19925;-67
2022/05/16 12:13:47;;;;;;;;;;;;;;;;;;5029808;28;19927;-68
2022/05/16 12:16:13;;;;;;;;;;;;;;;;;;5029470;28;20303;-68
2022/05/16 12:18:39;;;;;;;;;;;;;;;;;;5028280;28;20012;-68
2022/05/16 12:21:05;;;;;;;;;;;;;;;;;;5045026;28;20020;-68
2022/05/16 12:23:31;;;;;;;;;;;;;;;;;;5031029;28;19944;-67
2022/05/16 12:25:57;;;;;;;;;;;;;;;;;;5029232;28;20005;-67
2022/05/16 12:28:29;;;;;;;;;;;;;;;;;;5049900;28;19925;-67
2022/05/16 12:30:55;;;;;;;;;;;;;;;;;;5034394;28;19928;-67
2022/05/16 12:33:21;;;;;;;;;;;;;;;;;;5033696;28;19924;-69
2022/05/16 12:35:47;;;;;;;;;;;;;;;;;;5034671;28;20031;-68
2022/05/16 12:38:13;;;;;;;;;;;;;;;;;;5033685;28;19944;-69
2022/05/16 12:40:39;;;;;;;;;;;;;;;;;;5033495;28;19933;-67
2022/05/16 12:43:05;;;;;;;;;;;;;;;;;;5034236;28;19925;-67
2022/05/16 12:45:32;;;;;;;;;;;;;;;;;;5034000;28;20655;-68
2022/05/16 12:47:58;;;;;;;;;;;;;;;;;;5032528;28;19921;-68
2022/05/16 12:50:24;;;;;;;;;;;;;;;;;;5049293;28;19921;-68
2022/05/16 12:52:50;;;;;;;;;;;;;;;;;;5033031;28;19952;-67
2022/05/16 12:55:16;;;;;;;;;;;;;;;;;;5032419;28;19979;-69
2022/05/16 12:57:42;;;;;;;;;;;;;;;;;;5033202;28;19971;-68
2022/05/16 13:00:08;;;;;;;;;;;;;;;;;;5033757;28;19929;-68
2022/05/16 13:02:34;;;;;;;;;;;;;;;;;;5036111;28;19975;-67
2022/05/16 13:05:00;;;;;;;;;;;;;;;;;;5036321;28;20362;-66
2022/05/16 13:07:26;;;;;;;;;;;;;;;;;;5035854;28;19929;-67
2022/05/16 13:09:52;;;;;;;;;;;;;;;;;;5033324;28;19921;-66
2022/05/16 13:12:19;;;;;;;;;;;;;;;;;;5031336;28;19972;-66
2022/05/16 13:14:44;;;;;;;;;;;;;;;;;;5034707;28;19925;-67
2022/05/16 13:17:10;;;;;;;;;;;;;;;;;;5033898;28;19925;-67
2022/05/16 13:19:36;;;;;;;;;;;;;;;;;;5032469;28;19982;-67
2022/05/16 13:22:02;;;;;;;;;;;;;;;;;;5032982;28;19968;-68
2022/05/16 13:24:29;;;;;;;;;;;;;;;;;;5031677;28;20014;-67
2022/05/16 13:29:40;;;;;;;;;;;;;;;;;;5030974;28;20591;-67
2022/05/16 13:32:06;;;;;;;;;;;;;;;;;;5032274;28;20276;-67
2022/05/16 13:34:32;;;;;;;;;;;;;;;;;;5032073;28;19925;-67
2022/05/16 13:36:58;;;;;;;;;;;;;;;;;;5032423;28;19921;-67
2022/05/16 13:39:24;;;;;;;;;;;;;;;;;;5033915;28;19928;-67
2022/05/16 13:41:50;;;;;;;;;;;;;;;;;;5032922;28;19929;-67
2022/05/16 13:44:16;;;;;;;;;;;;;;;;;;5034436;28;19921;-67
2022/05/16 13:46:42;;;;;;;;;;;;;;;;;;5032420;28;19925;-67
2022/05/16 13:49:08;;;;;;;;;;;;;;;;;;5031090;28;19928;-68
2022/05/16 13:51:34;;;;;;;;;;;;;;;;;;5032081;28;20023;-68
2022/05/16 13:54:00;;;;;;;;;;;;;;;;;;5031535;28;20052;-68
2022/05/16 13:56:26;;;;;;;;;;;;;;;;;;5032160;28;19925;-68
2022/05/16 13:58:52;;;;;;;;;;;;;;;;;;5033195;28;19920;-68
2022/05/16 14:01:18;;;;;;;;;;;;;;;;;;5014310;28;19921;-67
2022/05/16 14:03:46;;;;;;;;;;;;;;;;;;5032283;28;19947;-68
2022/05/16 14:06:11;;;;;;;;;;;;;;;;;;5033713;28;19921;-68
2022/05/16 14:08:38;;;;;;;;;;;;;;;;;;5047304;28;20299;-68
2022/05/16 14:11:04;;;;;;;;;;;;;;;;;;5032008;28;19996;-71
2022/05/16 14:13:30;;;;;;;;;;;;;;;;;;5033863;28;19925;-68
2022/05/16 14:15:56;;;;;;;;;;;;;;;;;;5032685;28;19959;-69
2022/05/16 14:18:23;;;;;;;;;;;;;;;;;;5031873;28;19921;-68
2022/05/16 14:20:49;;;;;;;;;;;;;;;;;;5031881;28;20301;-68
2022/05/16 14:23:15;;;;;;;;;;;;;;;;;;5031362;28;19931;-68
2022/05/16 14:25:41;;;;;;;;;;;;;;;;;;5033197;28;19921;-68
2022/05/16 14:28:07;;;;;;;;;;;;;;;;;;5032615;28;19960;-69
2022/05/16 14:30:38;;;;;;;;;;;;;;;;;;5031680;28;19933;-69
2022/05/16 14:33:06;;;;;;;;;;;;;;;;;;5032413;28;19921;-70
2022/05/16 14:35:32;;;;;;;;;;;;;;;;;;5031781;28;19932;-68
2022/05/16 14:37:58;;;;;;;;;;;;;;;;;;5029920;28;20534;-68
2022/05/16 14:40:24;;;;;;;;;;;;;;;;;;5028403;28;20360;-69
2022/05/16 14:42:50;;;;;;;;;;;;;;;;;;5030808;28;20030;-70
2022/05/16 14:45:16;;;;;;;;;;;;;;;;;;5047952;28;19929;-68
2022/05/16 14:47:43;;;;;;;;;;;;;;;;;;5031968;28;19968;-70
2022/05/16 14:50:09;;;;;;;;;;;;;;;;;;5030870;28;19961;-69
2022/05/16 14:52:35;;;;;;;;;;;;;;;;;;5030623;28;19929;-67
2022/05/16 14:55:02;;;;;;;;;;;;;;;;;;5031109;28;20016;-70
2022/05/16 14:57:28;;;;;;;;;;;;;;;;;;5031060;28;19928;-67
2022/05/16 14:59:54;;;;;;;;;;;;;;;;;;5035716;28;19924;-68
2022/05/16 15:05:04;;;;;;;;;;;;;;;;;;5031427;28;20276;-68
2022/05/16 15:07:30;;;;;;;;;;;;;;;;;;5032230;28;19921;-68
2022/05/16 15:09:56;;;;;;;;;;;;;;;;;;5030966;28;19921;-69
2022/05/16 15:12:22;;;;;;;;;;;;;;;;;;5028824;28;19921;-69
2022/05/16 15:14:49;;;;;;;;;;;;;;;;;;5031551;28;19967;-69
2022/05/16 15:17:17;;;;;;;;;;;;;;;;;;5032066;28;19921;-67
2022/05/16 15:19:43;;;;;;;;;;;;;;;;;;5031761;28;19928;-67
2022/05/16 15:22:09;;;;;;;;;;;;;;;;;;5032331;28;19925;-66
2022/05/16 15:24:35;;;;;;;;;;;;;;;;;;5030652;28;20275;-67
2022/05/16 15:27:01;;;;;;;;;;;;;;;;;;5031676;28;19979;-67
2022/05/16 15:29:27;;;;;;;;;;;;;;;;;;5031968;28;19921;-67
2022/05/16 15:31:53;;;;;;;;;;;;;;;;;;5046208;28;19943;-67
2022/05/16 15:34:19;;;;;;;;;;;;;;;;;;5031997;28;19925;-67
2022/05/16 15:36:46;;;;;;;;;;;;;;;;;;5031450;28;19941;-67
2022/05/16 15:39:12;;;;;;;;;;;;;;;;;;5031658;28;19932;-67
2022/05/16 15:41:39;;;;;;;;;;;;;;;;;;5032570;28;19925;-67
2022/05/16 15:44:05;;;;;;;;;;;;;;;;;;5032075;28;19922;-67
2022/05/16 15:46:31;;;;;;;;;;;;;;;;;;5030386;28;19932;-67
2022/05/16 15:48:56;;;;;;;;;;;;;;;;;;5032427;28;19925;-67
2022/05/16 15:51:25;;;;;;;;;;;;;;;;;;5032334;28;20074;-67
2022/05/16 15:53:51;;;;;;;;;;;;;;;;;;5031684;28;19926;-67
2022/05/16 15:56:18;;;;;;;;;;;;;;;;;;5032427;28;20015;-67
2022/05/16 15:58:45;;;;;;;;;;;;;;;;;;5032126;28;19944;-67
2022/05/16 16:01:11;;;;;;;;;;;;;;;;;;5031656;28;20330;-67
2022/05/16 16:09:08;;;;;;;;;;;;;;;;;;5035664;28;20256;-67
2022/05/16 16:11:34;;;;;;;;;;;;;;;;;;5036180;28;19928;-67
2022/05/16 16:14:00;;;;;;;;;;;;;;;;;;5036102;28;19921;-67
2022/05/16 16:16:26;;;;;;;;;;;;;;;;;;5035341;28;19970;-67
2022/05/16 16:18:52;;;;;;;;;;;;;;;;;;5035675;28;19990;-67
2022/05/16 16:21:19;;;;;;;;;;;;;;;;;;5036071;28;19932;-67
2022/05/16 16:23:44;;;;;;;;;;;;;;;;;;5035233;28;19921;-67
2022/05/16 16:26:10;;;;;;;;;;;;;;;;;;5035731;28;19990;-67
2022/05/16 16:28:36;;;;;;;;;;;;;;;;;;5035440;28;19921;-67
2022/05/16 16:31:03;;;;;;;;;;;;;;;;;;5034618;28;19921;-67
2022/05/16 16:33:29;;;;;;;;;;;;;;;;;;5035627;28;20016;-67
2022/05/16 16:35:55;;;;;;;;;;;;;;;;;;5035507;28;20338;-66
2022/05/16 16:38:22;;;;;;;;;;;;;;;;;;5034852;28;19925;-66
2022/05/16 16:40:48;;;;;;;;;;;;;;;;;;5034739;28;19925;-66
2022/05/16 16:43:14;;;;;;;;;;;;;;;;;;5035063;28;19928;-66
2022/05/16 16:45:40;;;;;;;;;;;;;;;;;;5034546;28;19925;-66
2022/05/16 16:48:06;;;;;;;;;;;;;;;;;;5033618;28;19921;-66
2022/05/16 16:50:32;;;;;;;;;;;;;;;;;;5034990;28;19928;-66
2022/05/16 16:58:28;;;;;;;;;;;;;;;;;;5034839;28;20271;-66
2022/05/16 17:00:54;;;;;;;;;;;;;;;;;;5033896;28;19925;-66
2022/05/16 17:03:20;;;;;;;;;;;;;;;;;;5034865;28;19925;-66
2022/05/16 17:05:48;;;;;;;;;;;;;;;;;;5034981;28;19920;-66
2022/05/16 17:08:14;;;;;;;;;;;;;;;;;;5034021;28;19921;-66
2022/05/16 17:10:44;;;;;;;;;;;;;;;;;;5034889;28;19964;-66
2022/05/16 17:13:10;;;;;;;;;;;;;;;;;;5034157;28;20039;-66
2022/05/16 17:15:36;;;;;;;;;;;;;;;;;;5034096;28;20355;-66
2022/05/16 17:18:03;;;;;;;;;;;;;;;;;;5034442;28;19977;-66
2022/05/16 17:20:29;;;;;;;;;;;;;;;;;;5033019;28;19929;-66
2022/05/16 17:22:55;;;;;;;;;;;;;;;;;;5033723;28;20008;-66